createdAt,value
2023-03-05T00:00:25.096Z,3.30
2023-03-05T00:03:00.085Z,2.50
2023-03-05T00:05:31.805Z,3.17
2023-03-05T00:08:01.408Z,2.80
2023-03-05T00:10:31.867Z,3.80
2023-03-05T00:12:59.601Z,3.05
2023-03-05T00:15:27.129Z,4.47
2023-03-05T00:17:56.054Z,2.95
2023-03-05T00:20:23.830Z,4.03
2023-03-05T00:22:53.292Z,3.67
2023-03-05T00:25:24.857Z,3.53
2023-03-05T00:27:52.236Z,3.30
2023-03-05T00:30:22.135Z,5.63
2023-03-05T00:32:49.578Z,6.63
2023-03-05T00:35:20.352Z,3.70
2023-03-05T00:37:55.275Z,3.78
2023-03-05T00:40:28.839Z,4.57
2023-03-05T00:42:56.423Z,3.65
2023-03-05T00:45:26.512Z,2.83
2023-03-05T00:47:53.891Z,3.53
2023-03-05T00:50:33.235Z,3.78
2023-03-05T00:53:04.656Z,4.22
2023-03-05T00:55:32.189Z,4.50
2023-03-05T00:58:02.613Z,4.22
2023-03-05T01:00:30.347Z,4.90
2023-03-05T01:02:58.304Z,4.00
2023-03-05T01:05:29.613Z,4.10
2023-03-05T01:08:02.877Z,5.75
2023-03-05T01:10:30.983Z,5.03
2023-03-05T01:12:58.829Z,4.45
2023-03-05T01:15:30.862Z,4.43
2023-03-05T01:17:58.587Z,5.63
2023-03-05T01:20:27.408Z,5.13
2023-03-05T01:23:04.494Z,4.60
2023-03-05T01:25:34.431Z,5.00
2023-03-05T01:28:04.901Z,5.28
2023-03-05T01:30:33.113Z,5.18
2023-03-05T01:33:00.492Z,5.85
2023-03-05T01:35:28.487Z,5.25
2023-03-05T01:37:56.147Z,5.63
2023-03-05T01:40:29.220Z,5.55
2023-03-05T01:42:59.433Z,5.57
2023-03-05T01:45:37.221Z,5.53
2023-03-05T01:48:05.216Z,4.95
2023-03-05T01:50:37.081Z,5.32
2023-03-05T01:53:08.215Z,5.78
2023-03-05T01:55:40.178Z,5.65
2023-03-05T01:58:13.006Z,5.75
2023-03-05T02:00:44.972Z,5.18
2023-03-05T02:03:15.330Z,6.72
2023-03-05T02:05:46.299Z,5.90
2023-03-05T02:08:14.985Z,6.75
2023-03-05T02:10:48.602Z,5.90
2023-03-05T02:13:19.873Z,6.00
2023-03-05T02:15:49.840Z,4.35
2023-03-05T02:18:18.512Z,4.75
2023-03-05T02:20:47.837Z,4.55
2023-03-05T02:23:19.121Z,3.70
2023-03-05T02:25:50.191Z,4.75
2023-03-05T02:30:55.926Z,3.63
2023-03-05T02:33:23.398Z,3.50
2023-03-05T02:35:51.261Z,3.60
2023-03-05T02:38:21.502Z,3.28
2023-03-05T02:40:49.405Z,3.95
2023-03-05T02:43:27.990Z,4.03
2023-03-05T02:45:55.594Z,4.55
2023-03-05T02:48:23.045Z,3.35
2023-03-05T02:50:56.964Z,3.28
2023-03-05T02:53:34.040Z,3.20
2023-03-05T02:56:08.692Z,3.05
2023-03-05T02:58:36.640Z,3.05
2023-03-05T03:01:04.425Z,3.22
2023-03-05T03:03:33.496Z,2.83
2023-03-05T03:06:01.929Z,3.08
2023-03-05T03:08:34.916Z,2.70
2023-03-05T03:11:12.587Z,2.45
2023-03-05T03:13:43.382Z,2.75
2023-03-05T03:16:16.540Z,3.72
2023-03-05T03:18:49.010Z,3.03
2023-03-05T03:21:26.874Z,2.90
2023-03-05T03:26:26.602Z,2.63
2023-03-05T03:28:54.406Z,2.35
2023-03-05T03:31:26.498Z,2.75
2023-03-05T03:33:57.160Z,3.05
2023-03-05T03:36:30.972Z,3.28
2023-03-05T03:39:01.427Z,3.00
2023-03-05T03:41:31.637Z,3.30
2023-03-05T03:44:03.068Z,3.75
2023-03-05T03:46:34.113Z,4.03
2023-03-05T03:49:06.077Z,3.47
2023-03-05T03:51:33.632Z,3.45
2023-03-05T03:54:01.214Z,3.75
2023-03-05T03:56:31.791Z,3.38
2023-03-05T03:59:00.631Z,3.75
2023-03-05T04:01:30.188Z,4.15
2023-03-05T04:04:00.559Z,4.22
2023-03-05T04:06:33.489Z,4.05
2023-03-05T04:09:01.135Z,4.65
2023-03-05T04:11:28.512Z,3.92
2023-03-05T04:13:58.569Z,3.67
2023-03-05T04:16:27.569Z,3.63
2023-03-05T04:18:54.924Z,6.28
2023-03-05T04:21:22.399Z,4.25
2023-03-05T04:23:53.848Z,5.13
2023-03-05T04:26:27.319Z,4.97
2023-03-05T04:29:01.490Z,5.28
2023-03-05T04:31:30.321Z,6.90
2023-03-05T04:34:00.238Z,6.30
2023-03-05T04:36:34.512Z,7.03
2023-03-05T04:39:06.451Z,6.63
2023-03-05T04:41:33.903Z,7.68
2023-03-05T04:44:06.066Z,8.15
2023-03-05T04:46:37.493Z,6.97
2023-03-05T04:49:05.110Z,7.07
2023-03-05T04:51:34.504Z,7.60
2023-03-05T04:54:01.989Z,7.30
2023-03-05T04:56:29.718Z,7.85
2023-03-05T04:58:57.096Z,7.55
2023-03-05T05:01:27.661Z,7.70
2023-03-05T05:04:01.251Z,5.88
2023-03-05T05:06:40.002Z,6.85
2023-03-05T05:09:13.482Z,6.78
2023-03-05T05:11:48.548Z,6.90
2023-03-05T05:14:19.142Z,6.35
2023-03-05T05:16:49.220Z,6.72
2023-03-05T05:19:33.612Z,7.40
2023-03-05T05:22:06.964Z,7.72
2023-03-05T05:24:34.334Z,6.28
2023-03-05T05:27:04.106Z,5.95
2023-03-05T05:29:39.643Z,5.90
2023-03-05T05:32:17.657Z,6.75
2023-03-05T05:34:58.497Z,6.18
2023-03-05T05:37:26.653Z,6.20
2023-03-05T05:39:58.806Z,6.25
2023-03-05T05:42:31.724Z,6.03
2023-03-05T05:44:59.675Z,6.43
2023-03-05T05:47:36.733Z,5.97
2023-03-05T05:50:09.624Z,6.15
2023-03-05T05:52:37.309Z,6.22
2023-03-05T05:55:05.243Z,7.35
2023-03-05T05:57:36.075Z,6.80
2023-03-05T06:00:06.213Z,6.40
2023-03-05T06:02:39.314Z,7.00
2023-03-05T06:07:44.215Z,5.50
2023-03-05T06:10:12.320Z,6.15
2023-03-05T06:12:42.518Z,6.32
2023-03-05T06:15:10.822Z,6.15
2023-03-05T06:17:40.360Z,7.25
2023-03-05T06:20:09.404Z,5.65
2023-03-05T06:22:41.275Z,5.97
2023-03-05T06:25:09.479Z,4.80
2023-03-05T06:27:39.220Z,5.60
2023-03-05T06:30:08.974Z,5.38
2023-03-05T06:32:39.515Z,5.22
2023-03-05T06:37:59.561Z,6.18
2023-03-05T06:40:29.078Z,6.55
2023-03-05T06:42:56.598Z,6.38
2023-03-05T06:45:37.347Z,6.05
2023-03-05T06:48:08.628Z,7.65
2023-03-05T06:50:38.618Z,7.53
2023-03-05T06:53:07.539Z,7.72
2023-03-05T06:55:49.024Z,8.48
2023-03-05T06:58:18.186Z,9.63
2023-03-05T07:00:45.598Z,9.38
2023-03-05T07:03:13.648Z,8.32
2023-03-05T07:05:56.283Z,7.45
2023-03-05T07:08:25.206Z,7.68
2023-03-05T07:10:54.560Z,8.55
2023-03-05T07:13:24.266Z,8.93
2023-03-05T07:15:53.750Z,7.72
2023-03-05T07:18:25.226Z,6.85
2023-03-05T07:21:03.524Z,8.52
2023-03-05T07:23:37.385Z,8.88
2023-03-05T07:26:07.949Z,9.75
2023-03-05T07:28:35.984Z,8.75
2023-03-05T07:31:09.085Z,8.52
2023-03-05T07:33:37.539Z,7.97
2023-03-05T07:36:06.726Z,8.35
2023-03-05T07:38:40.215Z,8.32
2023-03-05T07:41:08.710Z,8.05
2023-03-05T07:43:39.531Z,8.00
2023-03-05T07:46:08.157Z,6.63
2023-03-05T07:48:37.378Z,7.40
2023-03-05T07:51:08.545Z,7.47
2023-03-05T07:53:37.235Z,8.52
2023-03-05T07:56:09.710Z,9.13
2023-03-05T07:58:39.698Z,7.43
2023-03-05T08:01:13.411Z,6.88
2023-03-05T08:03:41.079Z,8.40
2023-03-05T08:06:08.881Z,7.70
2023-03-05T08:08:36.965Z,8.20
2023-03-05T08:11:06.809Z,7.10
2023-03-05T08:13:34.538Z,7.18
2023-03-05T08:16:04.995Z,7.47
2023-03-05T08:18:32.392Z,7.80
2023-03-05T08:20:59.821Z,8.32
2023-03-05T08:23:27.594Z,7.57
2023-03-05T08:25:55.129Z,9.70
2023-03-05T08:28:24.198Z,8.63
2023-03-05T08:30:51.603Z,8.48
2023-03-05T08:33:19.122Z,9.23
2023-03-05T08:35:46.679Z,8.25
2023-03-05T08:38:14.125Z,8.55
2023-03-05T08:40:42.971Z,9.00
2023-03-05T08:43:10.334Z,7.45
2023-03-05T08:45:39.544Z,7.35
2023-03-05T08:48:08.842Z,7.30
2023-03-05T08:50:41.002Z,9.40
2023-03-05T08:53:09.750Z,8.88
2023-03-05T08:55:39.087Z,8.32
2023-03-05T08:58:06.453Z,7.07
2023-03-05T09:00:33.915Z,6.97
2023-03-05T09:03:02.986Z,6.70
2023-03-05T09:05:33.076Z,7.47
2023-03-05T09:08:00.824Z,5.72
2023-03-05T09:12:56.833Z,5.25
2023-03-05T09:15:24.573Z,3.97
2023-03-05T09:18:00.011Z,4.35
2023-03-05T09:20:30.898Z,5.13
2023-03-05T09:23:01.296Z,3.92
2023-03-05T09:25:28.763Z,4.97
2023-03-05T09:27:56.442Z,4.13
2023-03-05T09:30:26.856Z,4.30
2023-03-05T09:32:54.479Z,3.08
2023-03-05T09:35:21.859Z,3.00
2023-03-05T09:37:52.491Z,3.13
2023-03-05T09:40:22.726Z,3.10
2023-03-05T09:43:03.222Z,3.00
2023-03-05T09:45:33.696Z,2.88
2023-03-05T09:48:12.891Z,1.85
2023-03-05T09:50:44.503Z,2.15
2023-03-05T09:53:21.598Z,2.42
2023-03-05T09:55:54.404Z,3.25
2023-03-05T09:58:26.416Z,3.10
2023-03-05T10:01:02.826Z,4.10
2023-03-05T10:03:37.763Z,4.00
2023-03-05T10:06:12.312Z,4.20
2023-03-05T10:08:52.210Z,4.57
2023-03-05T10:11:34.813Z,4.75
2023-03-05T10:14:02.612Z,5.18
2023-03-05T10:16:53.233Z,5.35
2023-03-05T10:19:27.533Z,5.35
2023-03-05T10:22:07.269Z,4.90
2023-03-05T10:24:42.846Z,4.35
2023-03-05T10:27:16.929Z,4.60
2023-03-05T10:30:03.587Z,4.20
2023-03-05T10:32:40.201Z,3.45
2023-03-05T10:35:21.142Z,4.28
2023-03-05T10:38:07.277Z,5.18
2023-03-05T10:40:44.171Z,5.20
2023-03-05T10:43:18.841Z,4.00
2023-03-05T10:45:52.709Z,3.47
2023-03-05T10:48:27.727Z,3.92
2023-03-05T10:51:00.659Z,3.63
2023-03-05T10:53:30.875Z,3.10
2023-03-05T10:56:04.614Z,3.67
2023-03-05T10:58:33.828Z,4.53
2023-03-05T11:01:21.898Z,4.20
2023-03-05T11:04:00.625Z,4.72
2023-03-05T11:06:37.900Z,3.63
2023-03-05T11:09:24.169Z,4.47
2023-03-05T11:12:22.179Z,4.60
2023-03-05T11:15:05.836Z,4.53
2023-03-05T11:17:34.771Z,4.25
2023-03-05T11:20:23.936Z,3.83
2023-03-05T11:23:03.585Z,4.47
2023-03-05T11:25:49.523Z,3.45
2023-03-05T11:28:32.262Z,3.88
2023-03-05T11:31:26.398Z,4.10
2023-03-05T11:34:00.376Z,4.65
2023-03-05T11:36:32.182Z,3.75
2023-03-05T11:39:11.233Z,3.80
2023-03-05T11:41:47.094Z,3.78
2023-03-05T11:44:19.859Z,3.25
2023-03-05T11:46:56.568Z,3.00
2023-03-05T11:49:33.475Z,3.65
2023-03-05T11:52:06.879Z,2.63
2023-03-05T11:54:37.532Z,3.53
2023-03-05T11:57:16.896Z,3.10
2023-03-05T11:59:47.137Z,3.70
2023-03-05T12:02:19.541Z,3.08
2023-03-05T12:04:54.450Z,3.28
2023-03-05T12:07:29.910Z,3.33
2023-03-05T12:09:58.407Z,3.00
2023-03-05T12:12:36.092Z,3.15
2023-03-05T12:15:06.330Z,2.05
2023-03-05T12:17:39.667Z,2.88
2023-03-05T12:20:11.520Z,2.35
2023-03-05T12:22:40.886Z,2.40
2023-03-05T12:25:36.678Z,2.45
2023-03-05T12:28:16.127Z,3.03
2023-03-05T12:31:01.922Z,4.03
2023-03-05T12:33:35.446Z,4.03
2023-03-05T12:36:21.750Z,4.40
2023-03-05T12:38:53.499Z,4.18
2023-03-05T12:41:35.670Z,4.18
2023-03-05T12:44:24.271Z,4.82
2023-03-05T12:47:23.450Z,4.15
2023-03-05T12:49:54.768Z,4.47
2023-03-05T12:52:26.849Z,3.97
2023-03-05T12:55:02.102Z,4.60
2023-03-05T12:57:33.830Z,3.85
2023-03-05T13:00:05.642Z,4.00
2023-03-05T13:02:35.565Z,3.47
2023-03-05T13:05:08.516Z,4.18
2023-03-05T13:07:36.598Z,2.67
2023-03-05T13:10:04.101Z,3.20
2023-03-05T13:12:33.362Z,3.03
2023-03-05T13:15:04.263Z,3.22
2023-03-05T13:17:39.386Z,3.20
2023-03-05T13:20:21.847Z,2.83
2023-03-05T13:23:03.411Z,2.95
2023-03-05T13:25:34.148Z,2.80
2023-03-05T13:28:07.287Z,2.42
2023-03-05T13:30:36.691Z,1.60
2023-03-05T13:33:05.781Z,1.52
2023-03-05T13:35:37.653Z,1.75
2023-03-05T13:38:09.250Z,1.90
2023-03-05T13:40:38.082Z,1.35
2023-03-05T13:43:14.862Z,1.50
2023-03-05T13:45:44.359Z,2.17
2023-03-05T13:48:21.874Z,1.65
2023-03-05T13:50:57.329Z,1.70
2023-03-05T13:53:28.320Z,1.77
2023-03-05T13:56:01.291Z,1.77
2023-03-05T13:58:48.900Z,1.92
2023-03-05T14:01:25.844Z,2.10
2023-03-05T14:03:53.907Z,1.43
2023-03-05T14:06:25.602Z,1.98
2023-03-05T14:09:00.544Z,2.20
2023-03-05T14:11:31.731Z,1.85
2023-03-05T14:14:06.419Z,2.25
2023-03-05T14:16:35.117Z,2.35
2023-03-05T14:19:05.956Z,1.75
2023-03-05T14:21:48.471Z,1.83
2023-03-05T14:24:25.438Z,1.75
2023-03-05T14:26:57.910Z,2.20
2023-03-05T14:29:34.046Z,1.63
2023-03-05T14:32:05.152Z,2.33
2023-03-05T14:34:37.995Z,1.67
2023-03-05T14:37:09.607Z,1.60
2023-03-05T14:39:46.783Z,1.55
2023-03-05T14:42:30.203Z,1.60
2023-03-05T14:45:04.119Z,1.77
2023-03-05T14:47:43.661Z,1.40
2023-03-05T14:50:18.130Z,1.73
2023-03-05T14:52:49.203Z,1.48
2023-03-05T14:55:22.813Z,1.65
2023-03-05T14:57:52.977Z,1.70
2023-03-05T15:00:26.234Z,1.75
2023-03-05T15:02:55.209Z,2.22
2023-03-05T15:05:24.366Z,2.33
2023-03-05T15:07:57.872Z,2.53
2023-03-05T15:10:29.831Z,2.65
2023-03-05T15:13:09.340Z,3.00
2023-03-05T15:15:37.936Z,2.88
2023-03-05T15:18:19.537Z,3.00
2023-03-05T15:20:51.689Z,2.60
2023-03-05T15:23:22.233Z,2.53
2023-03-05T15:25:51.098Z,2.78
2023-03-05T15:28:22.738Z,3.38
2023-03-05T15:30:51.830Z,2.78
2023-03-05T15:33:20.287Z,2.78
2023-03-05T15:35:51.943Z,3.63
2023-03-05T15:38:22.659Z,3.25
2023-03-05T15:40:53.578Z,3.22
2023-03-05T15:43:27.064Z,2.80
2023-03-05T15:45:58.011Z,2.95
2023-03-05T15:48:27.955Z,3.70
2023-03-05T15:51:01.773Z,3.88
2023-03-05T15:53:31.477Z,3.53
2023-03-05T15:56:00.380Z,3.30
2023-03-05T15:58:27.859Z,3.72
2023-03-05T16:01:08.560Z,3.58
2023-03-05T16:03:38.542Z,3.80
2023-03-05T16:06:12.398Z,4.65
2023-03-05T16:08:44.980Z,3.63
2023-03-05T16:11:14.002Z,2.83
2023-03-05T16:13:46.685Z,2.92
2023-03-05T16:16:17.702Z,3.17
2023-03-05T16:18:47.387Z,2.90
2023-03-05T16:21:16.715Z,3.38
2023-03-05T16:23:46.702Z,2.85
2023-03-05T16:26:15.588Z,3.33
2023-03-05T16:28:43.028Z,2.90
2023-03-05T16:31:10.479Z,2.65
2023-03-05T16:33:37.898Z,3.33
2023-03-05T16:36:28.233Z,3.10
2023-03-05T16:38:56.987Z,3.08
2023-03-05T16:41:30.210Z,3.30
2023-03-05T16:44:00.960Z,2.97
2023-03-05T16:46:35.058Z,2.95
2023-03-05T16:49:06.449Z,2.80
2023-03-05T16:51:35.488Z,3.38
2023-03-05T16:54:10.138Z,2.67
2023-03-05T16:56:39.057Z,2.90
2023-03-05T17:01:50.884Z,2.80
2023-03-05T17:04:19.569Z,3.95
2023-03-05T17:07:04.053Z,6.40
2023-03-05T17:09:34.985Z,7.67
2023-03-05T17:12:07.785Z,8.88
2023-03-05T17:14:35.190Z,9.15
2023-03-05T17:17:02.871Z,10.38
2023-03-05T17:19:33.843Z,9.60
2023-03-05T17:22:03.340Z,10.27
2023-03-05T17:24:34.345Z,10.30
2023-03-05T17:27:01.821Z,9.95
2023-03-05T17:32:18.581Z,10.73
2023-03-05T17:34:46.093Z,10.68
2023-03-05T17:37:16.195Z,10.98
2023-03-05T17:39:48.765Z,11.25
2023-03-05T17:42:20.282Z,11.98
2023-03-05T17:44:50.088Z,10.15
2023-03-05T17:47:17.691Z,10.38
2023-03-05T17:49:54.417Z,9.10
2023-03-05T17:52:22.814Z,9.43
2023-03-05T17:54:54.878Z,9.30
2023-03-05T17:57:24.963Z,9.63
2023-03-05T17:59:56.457Z,9.50
2023-03-05T18:02:27.298Z,8.25
2023-03-05T18:04:54.897Z,8.25
2023-03-05T18:07:37.015Z,7.90
2023-03-05T18:10:08.444Z,6.95
2023-03-05T18:12:37.209Z,7.93
2023-03-05T18:15:07.157Z,7.20
2023-03-05T18:17:42.080Z,8.00
2023-03-05T18:20:21.485Z,7.05
2023-03-05T18:22:49.000Z,6.93
2023-03-05T18:25:16.597Z,7.45
2023-03-05T18:27:46.834Z,7.55
2023-03-05T18:30:21.947Z,8.70
2023-03-05T18:32:51.969Z,8.02
2023-03-05T18:35:24.604Z,7.75
2023-03-05T18:37:52.044Z,8.05
2023-03-05T18:40:24.922Z,6.97
2023-03-05T18:42:52.627Z,6.82
2023-03-05T18:45:25.522Z,8.07
2023-03-05T18:47:54.506Z,7.43
2023-03-05T18:50:22.927Z,6.85
2023-03-05T18:52:50.593Z,7.10
2023-03-05T18:55:26.588Z,8.85
2023-03-05T18:58:04.996Z,7.22
2023-03-05T19:00:34.710Z,9.13
2023-03-05T19:03:03.883Z,8.73
2023-03-05T19:05:33.554Z,8.85
2023-03-05T19:08:06.576Z,10.18
2023-03-05T19:10:34.664Z,10.15
2023-03-05T19:15:55.742Z,10.15
2023-03-05T19:18:23.584Z,8.68
2023-03-05T19:23:22.705Z,8.90
2023-03-05T19:25:51.768Z,9.07
2023-03-05T19:28:30.381Z,8.70
2023-03-05T19:31:03.892Z,9.88
2023-03-05T19:33:34.286Z,9.23
2023-03-05T19:36:01.738Z,8.60
2023-03-05T19:38:41.069Z,8.43
2023-03-05T19:41:09.757Z,10.10
2023-03-05T19:43:37.661Z,9.88
2023-03-05T19:46:13.866Z,10.90
2023-03-05T19:48:45.003Z,10.77
2023-03-05T19:51:16.146Z,11.07
2023-03-05T19:53:43.907Z,10.02
2023-03-05T19:56:16.979Z,9.88
2023-03-05T19:58:53.150Z,11.50
2023-03-05T20:01:22.862Z,10.80
2023-03-05T20:03:56.934Z,11.13
2023-03-05T20:06:29.254Z,11.05
2023-03-05T20:08:57.142Z,12.07
2023-03-05T20:13:58.112Z,11.02
2023-03-05T20:16:30.998Z,12.98
2023-03-05T20:19:03.122Z,19.90
2023-03-05T20:21:32.803Z,10.23
2023-03-05T20:24:04.970Z,9.68
2023-03-05T20:26:39.207Z,9.60
2023-03-05T20:34:30.250Z,7.35
2023-03-05T20:37:02.247Z,9.15
2023-03-05T20:39:29.752Z,9.35
2023-03-05T20:42:05.873Z,9.27
2023-03-05T20:44:40.550Z,9.57
2023-03-05T20:47:26.173Z,8.90
2023-03-05T20:49:56.752Z,8.68
2023-03-05T20:52:26.251Z,9.20
2023-03-05T20:54:58.288Z,9.20
2023-03-05T20:57:29.042Z,8.50
2023-03-05T20:59:59.741Z,9.75
2023-03-05T21:02:30.170Z,10.35
2023-03-05T21:05:09.370Z,11.00
2023-03-05T21:07:36.774Z,10.30
2023-03-05T21:10:07.042Z,10.90
2023-03-05T21:12:38.443Z,11.43
2023-03-05T21:15:06.866Z,11.52
2023-03-05T21:17:37.285Z,11.18
2023-03-05T21:22:50.281Z,11.35
2023-03-05T21:25:24.725Z,11.43
2023-03-05T21:27:54.595Z,11.57
2023-03-05T21:30:28.278Z,13.23
2023-03-05T21:32:58.137Z,13.00
2023-03-05T21:35:35.704Z,13.75
2023-03-05T21:38:08.328Z,14.43
2023-03-05T21:40:46.618Z,14.38
2023-03-05T21:43:18.348Z,15.73
2023-03-05T21:45:47.569Z,16.30
2023-03-05T21:48:15.510Z,16.77
2023-03-05T21:50:49.075Z,16.48
2023-03-05T21:53:20.039Z,18.40
2023-03-05T21:56:01.543Z,17.92
2023-03-05T21:58:29.170Z,18.67
2023-03-05T22:00:58.266Z,18.80
2023-03-05T22:03:27.431Z,19.67
2023-03-05T22:06:00.662Z,19.75
2023-03-05T22:08:30.190Z,20.52
2023-03-05T22:10:58.267Z,20.05
2023-03-05T22:13:25.904Z,21.42
2023-03-05T22:16:03.221Z,21.65
2023-03-05T22:18:33.400Z,21.63
2023-03-05T22:21:03.501Z,20.67
2023-03-05T22:23:36.528Z,21.45
2023-03-05T22:26:07.025Z,22.05
2023-03-05T22:28:35.121Z,20.80
2023-03-05T22:31:12.076Z,20.90
2023-03-05T22:33:40.971Z,22.43
2023-03-05T22:36:15.120Z,19.88
2023-03-05T22:38:43.956Z,20.42
2023-03-05T22:41:14.915Z,19.05
2023-03-05T22:43:44.856Z,20.42
2023-03-05T22:46:14.681Z,20.05
2023-03-05T22:48:44.364Z,20.23
2023-03-05T22:51:22.398Z,20.05
2023-03-05T22:53:54.446Z,19.67
2023-03-05T22:56:22.598Z,19.80
2023-03-05T22:58:52.237Z,19.85
2023-03-05T23:01:29.138Z,19.67
2023-03-05T23:04:03.761Z,19.52
2023-03-05T23:06:33.190Z,18.80
2023-03-05T23:09:07.631Z,19.10
2023-03-05T23:11:35.250Z,19.13
2023-03-05T23:14:03.444Z,17.63
2023-03-05T23:16:30.974Z,19.10
2023-03-05T23:19:03.987Z,19.30
2023-03-05T23:21:33.601Z,17.48
2023-03-05T23:24:02.493Z,20.05
2023-03-05T23:26:35.971Z,18.27
2023-03-05T23:29:03.693Z,19.65
2023-03-05T23:31:40.244Z,19.52
2023-03-05T23:34:11.799Z,20.55
2023-03-05T23:36:39.229Z,21.20
2023-03-05T23:39:10.648Z,21.23
2023-03-05T23:41:39.173Z,22.08
2023-03-05T23:44:12.279Z,22.85
2023-03-05T23:46:42.700Z,21.90
2023-03-05T23:49:11.751Z,23.05
2023-03-05T23:51:40.503Z,23.92
2023-03-05T23:54:11.091Z,26.50
2023-03-05T23:56:40.321Z,25.17
2023-03-05T23:59:10.801Z,23.63
